Strona główna
METAR-TAF:

METAR-TAF

Lotnisko :

Port lotniczy Gloucester

Gloucester, Anglia

Szerokość geograficzna: 51-54N, Długość geograficzna: 002-10W, wysokość: 29 m

Aktualna obserwacja pogody

Raport powstał 2 godziny i 9 minut temu, godzina 14:50 UTC
Wiatr 6 kt od wschodnio-południowy wschód
Temperatura 25°C
Wilgotność 34%
Ciśnienie 1021 hPa
Widzialność 10 km lub więcej
Mało chmury na wysokości 4800 ft

METAR: EGBJ 301450Z 12006KT 9999 FEW048 25/08 Q1021

czas: 17:59 (16:59 UTC)

Prognoza

Raport powstał 3 godziny i 0 minut temu, godzina 13:59 UTC
Prognoza ważna od 30 godzina 15 UTC do 30 godzina 24 UTC
Wiatr 9 kt od wschód
Widzialność 10 km lub więcej
Brak chmur poniżej 1500 m i brak chmur cumulonimbus

TAF: EGBJ 301359Z 3015/3024 10009KT CAVOK

Obserwacja i prognoza pogody dla ponad 4000 lotnisk (raport METAR i TAF).

Dostępne stacje oznaczono żółtymi i czerwonymi punktami na mapie.

Najedź kursorem aby zobaczyć nazwę stacji.

Kliknij aby zobaczyć obserwacje i prognozy pogody.

Aby zmienić mapę: kliknij na zielony przycisk z czarnym krzyżykiem, aby powiększyć; na zielony przycisk z myślnikiem, aby pomniejszyć; na zielone strzałki, aby przejść do map sąsiednich.


METAR-TAF: